Flight Track Log - Related Links

Times and Time Zones

All times are in EDT time to prevent confusion due to time zone crossing. See the SKQ45 flight status page for this flight to view local times or setup timezone preferences in your user account.


Time Position Orientation Groundspeed Altitude Reporting Facility
EDT Latitude Longitude Course Direction KTS MPH feet Rate Location/Type
Wed 02:20:02 AM 40.0706 -83.1178 259° West 144 166 2,900  Level Indianapolis Center
Wed 02:21:02 AM 40.0353 -83.1119 173° South 146 168 4,800 1,401 Climbing Indianapolis Center
Wed 02:22:19 AM 39.9800 -83.0728 151° Southeast 180 207 6,100 1,139 Climbing Indianapolis Center
Wed 02:23:19 AM 39.9206 -83.0586 170° South 210 242 7,400 1,438 Climbing Indianapolis Center
Wed 02:24:20 AM 39.8742 -83.0083 140° Southeast 214 246 9,000 1,438 Climbing Indianapolis Center
Wed 02:25:20 AM 39.8294 -82.9564 138° Southeast 213 245 10,300 1,300 Climbing Indianapolis Center
Wed 02:26:20 AM 39.8117 -82.8797 107° East 225 259 11,600 1,300 Climbing Indianapolis Center
Wed 02:27:20 AM 39.7989 -82.8025 102° East 217 250 12,900 1,250 Climbing Indianapolis Center
Wed 02:28:20 AM 39.7864 -82.7228 102° East 222 255 14,100 1,240 Climbing Indianapolis Center
Wed 02:29:21 AM 39.7733 -82.6431 102° East 224 258 15,400 1,289 Climbing Indianapolis Center
Wed 02:30:21 AM 39.7578 -82.5667 105° East 219 252 16,700 1,150 Climbing Indianapolis Center
Wed 02:31:21 AM 39.7369 -82.4919 110° East 219 252 17,700 950 Climbing Indianapolis Center
Wed 02:32:21 AM 39.7147 -82.4322 116° Southeast 219 252 18,600 850 Climbing Indianapolis Center
Wed 02:33:21 AM 39.6911 -82.3558 112° Southeast 225 259 19,400 800 Climbing Indianapolis Center
Wed 02:34:21 AM 39.6633 -82.2731 114° Southeast 247 284 20,200 843 Climbing Indianapolis Center
Wed 02:35:22 AM 39.6344 -82.1897 114° Southeast 250 288 21,100 843 Climbing Indianapolis Center
Wed 02:36:22 AM 39.6083 -82.1083 113° Southeast 254 292 21,900 850 Climbing Indianapolis Center
Wed 02:37:22 AM 39.5808 -82.0261 113° Southeast 250 288 22,800 900 Climbing Indianapolis Center
Wed 02:38:22 AM 39.5533 -81.9444 114° Southeast 248 285 23,700 900 Climbing Indianapolis Center
Wed 02:39:22 AM 39.5261 -81.8636 114° Southeast 245 282 24,600 650 Climbing Indianapolis Center
Wed 02:40:22 AM 39.4981 -81.7811 114° Southeast 250 288 25,000 198 Climbing Indianapolis Center
Wed 02:41:23 AM 39.4675 -81.6911 114° Southeast 270 311 25,000  Level Indianapolis Center
Wed 02:42:23 AM 39.4353 -81.5961 114° Southeast 286 329 25,000  Level Indianapolis Center
Wed 02:43:23 AM 39.4014 -81.4983 114° Southeast 295 339 25,000  Level Indianapolis Center
Wed 02:44:23 AM 39.3689 -81.4003 113° Southeast 296 341 25,000  Level Indianapolis Center
Wed 02:45:23 AM 39.3347 -81.3008 114° Southeast 301 346 25,000  Level Indianapolis Center
Wed 02:46:23 AM 39.3014 -81.2022 114° Southeast 300 345 25,000  Level Indianapolis Center
Wed 02:47:24 AM 39.2664 -81.1022 114° Southeast 303 349 25,000  Level Indianapolis Center
Wed 02:48:24 AM 39.2325 -81.0014 113° Southeast 305 351 25,000  Level Indianapolis Center
Wed 02:49:24 AM 39.1972 -80.9017 115° Southeast 305 351 25,000  Level Indianapolis Center
Wed 02:50:24 AM 39.1625 -80.8025 114° Southeast 304 350 25,000  Level Indianapolis Center
Wed 02:51:24 AM 39.1300 -80.7058 113° Southeast 295 339 25,000  Level Indianapolis Center
Wed 02:52:24 AM 39.0914 -80.6156 119° Southeast 289 333 25,000  Level Indianapolis Center
Wed 02:53:25 AM 39.0417 -80.5414 131° Southeast 275 316 25,000  Level Indianapolis Center
Wed 02:54:25 AM 38.9942 -80.4650 129° Southeast 273 314 25,000  Level Indianapolis Center
Wed 02:55:25 AM 38.9275 -80.4403 164° South 250 288 25,000  Level Indianapolis Center
Wed 02:56:25 AM 38.8592 -80.4242 170° South 249 287 25,000  Level Indianapolis Center
Wed 02:57:25 AM 38.7919 -80.4014 165° South 250 288 25,000  Level Indianapolis Center
Wed 02:58:25 AM 38.7264 -80.3769 164° South 246 283 25,000  Level Indianapolis Center
Wed 02:59:26 AM 38.6611 -80.3544 165° South 244 281 25,000  Level Indianapolis Center
Wed 03:00:24 AM 38.5944 -80.3386 169° South 247 284 25,000  Level Washington Center
Wed 03:01:24 AM 38.5267 -80.3131 164° South 252 290 25,000  Level Washington Center
Wed 03:02:24 AM 38.4525 -80.2872 165° South 257 296 25,000  Level Washington Center
Wed 03:03:24 AM 38.3867 -80.2644 165° South 257 296 25,000  Level Washington Center
Wed 03:04:24 AM 38.3189 -80.2417 165° South 257 296 25,000  Level Washington Center
Wed 03:05:24 AM 38.2550 -80.2192 165° South 251 289 25,000  Level Washington Center
Wed 03:06:24 AM 38.1975 -80.1997 165° South 251 289 25,000  Level Washington Center
Wed 03:07:24 AM 38.1314 -80.1772 165° South 251 289 25,000  Level Washington Center
Wed 03:08:24 AM 38.0636 -80.1519 164° South 251 289 25,000  Level Washington Center
Wed 03:09:24 AM 37.9914 -80.1292 166° South 251 289 25,000  Level Washington Center
Wed 03:10:24 AM 37.9278 -80.1069 165° South 251 289 25,000  Level Washington Center
Wed 03:11:24 AM 37.8575 -80.0842 166° South 251 289 25,000  Level Washington Center
Wed 03:12:24 AM 37.7897 -80.0617 165° South 251 289 25,000  Level Washington Center
Wed 03:13:24 AM 37.7278 -80.0397 164° South 258 297 25,000  Level Washington Center
Wed 03:14:27 AM 37.6578 -80.0147 164° South 258 297 25,000 -250 Level Washington Center
Wed 03:15:24 AM 37.5897 -79.9922 165° South 258 297 24,500 -872 Descending Washington Center
Wed 03:16:24 AM 37.5033 -79.9639 165° South 277 319 23,300 -1,150 Descending Washington Center
Wed 03:17:24 AM 37.4208 -79.9356 165° South 293 337 22,200 -1,050 Descending Washington Center
Wed 03:18:24 AM 37.3383 -79.9072 165° South 305 351 21,200 -1,033 Descending Washington Center
Wed 03:19:26 AM 37.2664 -79.8797 163° South 305 351 20,100 -1,050 Descending Washington Center
Wed 03:20:24 AM 37.1819 -79.8542 166° South 305 351 19,100 -1,119 Descending Washington Center
Wed 03:21:24 AM 37.1014 -79.8261 164° South 305 351 17,900 -1,200 Descending Washington Center
Wed 03:22:24 AM 37.0128 -79.7981 166° South 305 351 16,700 -1,200 Descending Washington Center
Wed 03:24:00 AM 36.9054 -79.7623 165° South  Level FlightAware Approximate
Wed 03:31:00 AM 36.4374 -79.5993 161° South  Level FlightAware Approximate
Wed 03:32:00 AM 36.3701 -79.5833 180° South  Level FlightAware Approximate
Wed 03:33:00 AM 36.3024 -79.5675 165° South  Level FlightAware Approximate
Wed 03:34:00 AM 36.2398 -79.5333 180° South  Level FlightAware Approximate
Wed 03:35:00 AM 36.1751 -79.5167 180° South  Level FlightAware Approximate
Wed 03:36:00 AM 36.1086 -79.4934 162° South  Level FlightAware Approximate
Wed 03:37:00 AM 36.0485 -79.4749 165° South  Level Estimated
Wed 03:38:00 AM 36.0485 -79.4749 165° South  Level Estimated

Login

Don't have an account? Register now (free) for customized features, flight alerts, and more!